• Join FlightAware (Why Join?)
  • Login
  • US Flag 
06:11PM EDT


 

Airport Tracker/Info


-or-


 

Live Flight TrackerFlight Track Log ✈ IBE6674 ✈ 10-Apr-2013 ✈ SVMI / CCS - LEMD / MAD

Flight Track Log - Related Links

Times and Time Zones

All times are in EDT time to prevent confusion due to time zone crossing. See the IBE6674 flight status page for this flight to view local times or setup timezone preferences in your user account.

Time Position Orientation Groundspeed Altitude Reporting Facility
EDT Latitude Longitude Course Direction KTS MPH feet Rate Location/Type
06:31PM 18.1169 -57.4613 50° Northeast  Level Estimated
06:32PM 18.2071 -57.3393 52° Northeast  Level Estimated
06:33PM 18.2971 -57.2171 52° Northeast  Level Estimated
06:34PM 18.3871 -57.0948 52° Northeast  Level Estimated
06:35PM 18.4770 -56.9724 52° Northeast  Level Estimated
06:36PM 18.5668 -56.8498 52° Northeast  Level Estimated
06:37PM 18.6565 -56.7271 52° Northeast  Level Estimated
06:38PM 18.7462 -56.6043 52° Northeast  Level Estimated
06:39PM 18.8357 -56.4814 52° Northeast  Level Estimated
06:40PM 18.9252 -56.3583 52° Northeast  Level Estimated
06:41PM 19.0146 -56.2351 52° Northeast  Level Estimated
06:42PM 19.1029 -56.1132 53° Northeast  Level Estimated
06:43PM 19.1910 -55.9913 53° Northeast  Level Estimated
06:44PM 19.2791 -55.8691 53° Northeast  Level Estimated
06:45PM 19.3671 -55.7469 53° Northeast  Level Estimated
06:46PM 19.4551 -55.6245 53° Northeast  Level Estimated
06:47PM 19.5429 -55.5020 53° Northeast  Level Estimated
06:48PM 19.6307 -55.3794 53° Northeast  Level Estimated
06:49PM 19.7184 -55.2566 53° Northeast  Level Estimated
06:50PM 19.8060 -55.1337 53° Northeast  Level Estimated
06:51PM 19.8935 -55.0106 53° Northeast  Level Estimated
06:52PM 19.9809 -54.8875 53° Northeast  Level Estimated
06:52PM 13.1890 -64.5840 53° Northeast 511 588 35,000  Level FlightAware
06:53PM 20.0683 -54.7641 53° Northeast  Level Estimated
06:53PM 13.2620 -64.5070 46° Northeast 511 588 35,000  Level FlightAware
06:53PM 13.3550 -64.4110 45° Northeast 513 590 35,000  Level FlightAware
06:54PM 13.4180 -64.3460 45° Northeast 512 589 35,000  Level FlightAware
06:55PM 13.4850 -64.2760 45° Northeast 513 590 35,000  Level FlightAware
06:56PM 13.5820 -64.1750 45° Northeast 512 589 35,000  Level FlightAware
06:56PM 13.6340 -64.1230 44° Northeast 512 589 35,000  Level FlightAware
06:57PM 13.7320 -64.0270 44° Northeast 507 583 35,000  Level FlightAware
06:58PM 13.8020 -63.9600 43° Northeast 507 583 35,000  Level FlightAware
07:00PM 13.9740 -63.7921 43° Northeast  Level FlightAware Approximate
07:00PM 14.0120 -63.7570 43° Northeast 503 579 35,000  Level FlightAware
07:01PM 14.0560 -63.7150 43° Northeast 504 580 35,000  Level FlightAware
07:01PM 14.1280 -63.6450 43° Northeast 504 580 35,000  Level FlightAware
07:02PM 14.2180 -63.5560 44° Northeast 504 580 35,000  Level FlightAware
07:03PM 14.2980 -63.4790 43° Northeast 502 578 35,000  Level FlightAware
07:05PM 14.4852 -63.2946 44° Northeast  Level FlightAware Approximate
07:05PM 14.5110 -63.2710 44° Northeast 506 582 35,000  Level FlightAware
07:06PM 14.5970 -63.1870 43° Northeast 506 582 35,000  Level FlightAware
07:07PM 14.7000 -63.0870 43° Northeast 509 586 35,000  Level FlightAware
07:07PM 14.7580 -63.0300 44° Northeast 511 588 35,000  Level FlightAware
07:08PM 14.8360 -62.9540 43° Northeast 512 589 35,000  Level FlightAware
07:09PM 14.9130 -62.8790 43° Northeast 512 589 35,000  Level FlightAware
07:09PM 14.9830 -62.8100 44° Northeast 514 592 35,000  Level FlightAware
07:10PM 15.0570 -62.7360 44° Northeast 514 592 35,000  Level FlightAware
07:11PM 15.1300 -62.6650 43° Northeast 514 592 35,000  Level FlightAware
07:12PM 15.2080 -62.5890 43° Northeast 515 593 35,000  Level FlightAware
07:12PM 15.2810 -62.5170 44° Northeast 516 594 35,000  Level FlightAware
07:13PM 15.3610 -62.4380 44° Northeast 516 594 35,000  Level FlightAware
07:14PM 15.4270 -62.3720 44° Northeast 517 595 35,000  Level FlightAware
07:15PM 15.5460 -62.2550 43° Northeast 518 596 35,000  Level FlightAware
07:16PM 15.5970 -62.2050 43° Northeast 35,000  Level FlightAware
07:16PM 15.6480 -62.1540 44° Northeast 519 597 35,000  Level FlightAware
07:18PM 15.7870 -62.0160 44° Northeast 521 600 35,000  Level FlightAware
07:19PM 15.8940 -61.9100 44° Northeast 522 601 35,000  Level FlightAware
07:19PM 15.9840 -61.8210 44° Northeast 523 602 35,000  Level FlightAware
07:20PM 16.0460 -61.7580 44° Northeast 524 603 35,000  Level FlightAware
07:21PM 16.1270 -61.6780 43° Northeast 525 604 35,000  Level FlightAware
07:21PM 16.1930 -61.6120 44° Northeast 525 604 35,000  Level FlightAware
07:22PM 16.2700 -61.5360 43° Northeast 525 604 35,000  Level FlightAware
07:23PM 16.3520 -61.4630 41° Northeast 519 597 35,000  Level FlightAware
07:24PM 16.4260 -61.3990 40° Northeast 515 593 35,000  Level FlightAware
07:24PM 16.4940 -61.3390 40° Northeast 513 590 35,000  Level FlightAware
07:25PM 16.5870 -61.2570 40° Northeast 508 585 35,000  Level FlightAware
07:26PM 16.6620 -61.1910 40° Northeast 506 582 35,000  Level FlightAware
07:26PM 16.7220 -61.1390 40° Northeast 505 581 35,000  Level FlightAware
07:27PM 16.8110 -61.0590 41° Northeast 507 583 35,000  Level FlightAware
07:28PM 16.8810 -60.9980 40° Northeast 508 585 35,000  Level FlightAware
07:28PM 16.9590 -60.9290 40° Northeast 509 586 35,000  Level FlightAware
07:29PM 17.0200 -60.8750 40° Northeast 510 587 35,000  Level FlightAware
07:30PM 17.1120 -60.7930 40° Northeast 511 588 35,000  Level FlightAware
07:31PM 17.1800 -60.7320 41° Northeast 511 588 35,000  Level FlightAware
07:31PM 17.2530 -60.6680 40° Northeast 512 589 35,000  Level FlightAware
07:32PM 17.3520 -60.5800 40° Northeast 511 588 35,000  Level FlightAware
07:33PM 17.4340 -60.5070 40° Northeast 512 589 35,000  Level FlightAware
07:34PM 17.4900 -60.4560 41° Northeast 511 588 35,000  Level FlightAware
07:34PM 17.5710 -60.3840 40° Northeast 508 585 35,000  Level FlightAware
07:35PM 17.6430 -60.3200 40° Northeast 505 581 35,000  Level FlightAware
07:36PM 17.7110 -60.2590 41° Northeast 504 580 35,000  Level FlightAware
07:36PM 17.7940 -60.1850 40° Northeast 506 582 35,000  Level FlightAware
07:37PM 17.8940 -60.0940 41° Northeast 507 583 35,000  Level FlightAware
07:38PM 18.0000 -60.0000 65° Northeast 526 605 35,000  Level New York Oceanic (ODAPS)
07:38PM 17.9500 -60.0390 43° Northeast 507 583 35,000  Level FlightAware
07:38PM 18.0167 -59.9500 65° Northeast 524 603 35,000  Level New York Oceanic (ODAPS)
07:39PM 18.0090 -59.9820 43° Northeast 507 583 35,000  Level FlightAware
07:39PM 18.0670 -59.9240 44° Northeast 507 583 35,000  Level FlightAware
07:40PM 18.1250 -59.8670 43° Northeast 507 583 35,000  Level FlightAware
07:41PM 18.1980 -59.7960 43° Northeast 507 583 35,000  Level FlightAware
07:41PM 18.2570 -59.7380 43° Northeast 507 583 35,000  Level FlightAware
07:42PM 18.3150 -59.6810 43° Northeast 507 583 35,000  Level FlightAware
07:43PM 18.3730 -59.6240 43° Northeast 507 583 35,000  Level FlightAware
07:44PM 18.3641 -59.1624 66° East 526 605 35,000  Level FlightAware Transoceanic
07:44PM 18.4310 -59.5660 65° Northeast 507 583 35,000  Level FlightAware
07:44PM 18.5040 -59.4950 43° Northeast 507 583 35,000  Level FlightAware
07:45PM 18.5630 -59.4370 43° Northeast 507 583 35,000  Level FlightAware
07:46PM 18.6210 -59.3800 43° Northeast 507 583 35,000  Level FlightAware
07:46PM 18.4833 -58.8667 66° East 525 604 35,000  Level New York Oceanic (ODAPS)
07:46PM 18.6790 -59.3230 43° Northeast 507 583 35,000  Level FlightAware
07:47PM 18.7380 -59.2650 43° Northeast 507 583 35,000  Level FlightAware
07:50PM 18.9601 -58.9555 53° Northeast  Level Estimated
07:51PM 19.0476 -58.8331 53° Northeast  Level Estimated
07:52PM 19.1351 -58.7106 53° Northeast  Level Estimated
07:53PM 18.9021 -57.8854 66° East 525 604 35,000  Level FlightAware Transoceanic
07:54PM 18.9615 -57.7449 66° East 525 604 35,000  Level FlightAware Transoceanic
07:55PM 19.0207 -57.6042 66° East 525 604 35,000  Level FlightAware Transoceanic
07:56PM 19.0799 -57.4634 66° East 525 604 35,000  Level FlightAware Transoceanic
07:57PM 19.1390 -57.3225 66° East 525 604 35,000  Level FlightAware Transoceanic
07:58PM 19.1980 -57.1816 66° East 525 604 35,000  Level FlightAware Transoceanic
07:59PM 19.2568 -57.0405 66° East 525 604 35,000  Level FlightAware Transoceanic
08:00PM 19.3156 -56.8993 66° East 525 604 35,000  Level FlightAware Transoceanic
08:01PM 19.3742 -56.7580 66° East 525 604 35,000  Level FlightAware Transoceanic
08:02PM 19.4328 -56.6167 66° East 525 604 35,000  Level FlightAware Transoceanic
08:03PM 19.4912 -56.4752 66° East 525 604 35,000  Level FlightAware Transoceanic
08:04PM 19.5495 -56.3336 66° East 525 604 35,000  Level FlightAware Transoceanic
08:05PM 19.6077 -56.1919 66° East 525 604 35,000  Level FlightAware Transoceanic
08:06PM 19.6658 -56.0501 67° East 525 604 35,000  Level FlightAware Transoceanic
08:06PM 19.6833 -56.0167 67° East 524 603 35,000  Level New York Oceanic (ODAPS)
08:07PM 19.7238 -55.9082 67° East 525 604 35,000  Level FlightAware Transoceanic
08:08PM 19.7817 -55.7662 67° East 525 604 35,000  Level FlightAware Transoceanic
08:09PM 19.8395 -55.6241 67° East 525 604 35,000  Level FlightAware Transoceanic
08:10PM 19.8971 -55.4819 67° East 525 604 35,000  Level FlightAware Transoceanic
08:11PM 19.9546 -55.3396 67° East 525 604 35,000  Level FlightAware Transoceanic
08:12PM 20.0121 -55.1972 67° East 525 604 35,000  Level FlightAware Transoceanic
08:13PM 20.0353 -55.1477 67° East 524 603 35,000  Level FlightAware Transoceanic
08:14PM 20.0935 -55.0025 67° East 524 603 35,000  Level FlightAware Transoceanic
08:15PM 20.1516 -54.8572 67° East 524 603 35,000  Level FlightAware Transoceanic
08:16PM 20.2096 -54.7117 67° East 524 603 35,000  Level FlightAware Transoceanic
08:17PM 20.2675 -54.5662 67° East 524 603 35,000  Level FlightAware Transoceanic
08:18PM 20.3253 -54.4206 67° East 524 603 35,000  Level FlightAware Transoceanic
08:19PM 20.3829 -54.2748 67° East 524 603 35,000  Level FlightAware Transoceanic
08:20PM 20.4404 -54.1289 67° East 524 603 35,000  Level FlightAware Transoceanic
08:21PM 20.4978 -53.9830 67° East 524 603 35,000  Level FlightAware Transoceanic
08:22PM 20.5551 -53.8369 67° East 524 603 35,000  Level FlightAware Transoceanic
08:23PM 20.6123 -53.6907 67° East 524 603 35,000  Level FlightAware Transoceanic
08:24PM 20.6693 -53.5444 67° East 524 603 35,000  Level FlightAware Transoceanic
08:25PM 20.7262 -53.3980 67° East 524 603 35,000  Level FlightAware Transoceanic
08:26PM 20.7830 -53.2515 68° East 524 603 35,000  Level FlightAware Transoceanic
08:27PM 20.8397 -53.1049 68° East 524 603 35,000  Level FlightAware Transoceanic
08:27PM 20.8167 -53.1667 68° East 519 597 35,000  Level New York Oceanic (ODAPS)
08:28PM 20.8962 -52.9581 68° East 524 603 35,000  Level FlightAware Transoceanic
08:29PM 20.9526 -52.8113 68° East 524 603 35,000  Level FlightAware Transoceanic
08:30PM 21.0089 -52.6643 68° East 524 603 35,000  Level FlightAware Transoceanic
08:31PM 21.0651 -52.5173 68° East 524 603 35,000  Level FlightAware Transoceanic
08:32PM 21.1211 -52.3701 68° East 524 603 35,000  Level FlightAware Transoceanic
08:33PM 21.1453 -52.3081 68° East 519 597 35,000  Level FlightAware Transoceanic
08:34PM 21.1996 -52.1646 68° East 519 597 35,000  Level FlightAware Transoceanic
08:35PM 21.2538 -52.0211 68° East 519 597 35,000  Level FlightAware Transoceanic
08:36PM 21.3079 -51.8774 68° East 519 597 35,000  Level FlightAware Transoceanic
08:37PM 21.3619 -51.7336 68° East 519 597 35,000  Level FlightAware Transoceanic
08:38PM 21.4158 -51.5897 68° East 519 597 35,000  Level FlightAware Transoceanic
08:39PM 21.4695 -51.4458 68° East 519 597 35,000  Level FlightAware Transoceanic
08:40PM 21.5231 -51.3017 68° East 519 597 35,000  Level FlightAware Transoceanic
08:41PM 21.5766 -51.1575 68° East 519 597 35,000  Level FlightAware Transoceanic
08:42PM 21.6300 -51.0131 68° East 519 597 35,000  Level FlightAware Transoceanic
08:43PM 21.6832 -50.8687 68° East 519 597 35,000  Level FlightAware Transoceanic
08:44PM 21.7363 -50.7242 68° East 519 597 35,000  Level FlightAware Transoceanic
08:45PM 21.7893 -50.5796 68° East 519 597 35,000  Level FlightAware Transoceanic
08:46PM 21.8422 -50.4348 69° East 519 597 35,000  Level FlightAware Transoceanic
08:47PM 21.8949 -50.2900 69° East 519 597 35,000  Level FlightAware Transoceanic
08:47PM 21.9167 -50.2333 69° East 515 593 35,000  Level New York Oceanic (ODAPS)
08:48PM 21.9475 -50.1451 69° East 519 597 35,000  Level FlightAware Transoceanic
08:49PM 22.0000 -50.0000 64° Northeast 519 597 35,000  Level FlightAware Transoceanic
08:49PM 22.0000 -50.0000 64° Northeast 516 594 35,000  Level New York Oceanic (ODAPS)
08:50PM 22.0633 -49.8574 64° Northeast 519 597 35,000  Level FlightAware Transoceanic
08:51PM 22.1266 -49.7146 64° Northeast 519 597 35,000  Level FlightAware Transoceanic
08:52PM 22.1897 -49.5718 65° Northeast 519 597 35,000  Level FlightAware Transoceanic
08:53PM 22.2564 -49.4202 65° Northeast 515 593 35,000  Level FlightAware Transoceanic
08:54PM 22.3202 -49.2750 65° Northeast 515 593 35,000  Level FlightAware Transoceanic
08:55PM 22.3727 -49.1549 65° Northeast 516 594 35,000  Level FlightAware Transoceanic
08:56PM 22.4344 -49.0135 65° Northeast 516 594 35,000  Level FlightAware Transoceanic
08:57PM 22.4960 -48.8721 65° Northeast 516 594 35,000  Level FlightAware Transoceanic
08:58PM 22.5575 -48.7306 65° Northeast 516 594 35,000  Level FlightAware Transoceanic
08:59PM 22.6188 -48.5889 65° Northeast 516 594 35,000  Level FlightAware Transoceanic
09:00PM 22.6800 -48.4471 65° Northeast 516 594 35,000  Level FlightAware Transoceanic
09:01PM 22.7411 -48.3052 65° Northeast 516 594 35,000  Level FlightAware Transoceanic
09:02PM 22.8020 -48.1631 65° Northeast 516 594 35,000  Level FlightAware Transoceanic
09:03PM 22.8629 -48.0210 65° Northeast 516 594 35,000  Level FlightAware Transoceanic
09:04PM 22.9236 -47.8787 65° Northeast 516 594 35,000  Level FlightAware Transoceanic
09:05PM 22.9841 -47.7362 65° Northeast 516 594 35,000  Level FlightAware Transoceanic
09:06PM 23.0446 -47.5937 65° Northeast 516 594 35,000  Level FlightAware Transoceanic
09:07PM 23.1049 -47.4510 65° Northeast 516 594 35,000  Level FlightAware Transoceanic
09:07PM 23.1667 -47.3000 65° Northeast 509 586 35,000  Level New York Oceanic (ODAPS)
09:08PM 23.1651 -47.3082 65° Northeast 516 594 35,000  Level FlightAware Transoceanic
09:09PM 23.2251 -47.1652 65° Northeast 516 594 35,000  Level FlightAware Transoceanic
09:10PM 23.2851 -47.0221 66° East 516 594 35,000  Level FlightAware Transoceanic
09:11PM 23.3449 -46.8789 66° East 516 594 35,000  Level FlightAware Transoceanic
09:12PM 23.4046 -46.7356 66° East 516 594 35,000  Level FlightAware Transoceanic
09:13PM 23.5112 -46.4744 66° East 509 586 35,000  Level FlightAware Transoceanic
09:14PM 23.5682 -46.3364 66° East 509 586 35,000  Level FlightAware Transoceanic
09:15PM 23.6250 -46.1983 66° East 509 586 35,000  Level FlightAware Transoceanic
09:16PM 23.6818 -46.0601 66° East 509 586 35,000  Level FlightAware Transoceanic
09:17PM 23.7384 -45.9217 66° East 509 586 35,000  Level FlightAware Transoceanic
09:18PM 23.7949 -45.7832 66° East 509 586 35,000  Level FlightAware Transoceanic
09:19PM 23.8513 -45.6446 66° East 509 586 35,000  Level FlightAware Transoceanic
09:20PM 23.9075 -45.5059 66° East 509 586 35,000  Level FlightAware Transoceanic
09:21PM 23.9637 -45.3670 66° East 509 586 35,000  Level FlightAware Transoceanic
09:22PM 24.0197 -45.2281 66° East 509 586 35,000  Level FlightAware Transoceanic
09:23PM 24.0756 -45.0890 66° East 509 586 35,000  Level FlightAware Transoceanic
09:24PM 24.1313 -44.9497 66° East 509 586 35,000  Level FlightAware Transoceanic
09:25PM 24.1869 -44.8104 66° East 509 586 35,000  Level FlightAware Transoceanic
09:26PM 24.2424 -44.6710 66° East 509 586 35,000  Level FlightAware Transoceanic
09:27PM 24.2978 -44.5314 67° East 509 586 35,000  Level FlightAware Transoceanic
09:27PM 24.3833 -44.3167 67° East 523 602 35,000  Level New York Oceanic (ODAPS)
09:28PM 24.3531 -44.3917 67° East 509 586 35,000  Level FlightAware Transoceanic
09:29PM 24.4082 -44.2519 67° East 509 586 35,000  Level FlightAware Transoceanic
09:30PM 24.4632 -44.1119 67° East 509 586 35,000  Level FlightAware Transoceanic
09:31PM 24.5180 -43.9719 67° East 509 586 35,000  Level FlightAware Transoceanic
09:32PM 24.5728 -43.8317 67° East 509 586 35,000  Level FlightAware Transoceanic
09:33PM 24.6274 -43.6913 67° East 509 586 35,000  Level FlightAware Transoceanic
09:34PM 24.7280 -43.4329 67° East 523 602 35,000  Level FlightAware Transoceanic
09:35PM 24.7849 -43.2852 67° East 523 602 35,000  Level FlightAware Transoceanic
09:36PM 24.8417 -43.1373 67° East 523 602 35,000  Level FlightAware Transoceanic
09:37PM 24.8984 -42.9893 67° East 523 602 35,000  Level FlightAware Transoceanic
09:38PM 24.9549 -42.8411 67° East 523 602 35,000  Level FlightAware Transoceanic
09:39PM 25.0112 -42.6928 67° East 523 602 35,000  Level FlightAware Transoceanic
09:40PM 25.0674 -42.5444 67° East 523 602 35,000  Level FlightAware Transoceanic
09:41PM 25.1235 -42.3958 67° East 523 602 35,000  Level FlightAware Transoceanic
09:42PM 25.1794 -42.2471 67° East 523 602 35,000  Level FlightAware Transoceanic
09:43PM 25.2352 -42.0982 68° East 523 602 35,000  Level FlightAware Transoceanic
09:44PM 25.2908 -41.9492 68° East 523 602 35,000  Level FlightAware Transoceanic
09:45PM 25.3463 -41.8001 68° East 523 602 35,000  Level FlightAware Transoceanic
09:46PM 25.4016 -41.6509 68° East 523 602 35,000  Level FlightAware Transoceanic
09:47PM 25.4568 -41.5015 68° East 523 602 35,000  Level FlightAware Transoceanic
09:48PM 25.5118 -41.3519 68° East 523 602 35,000  Level FlightAware Transoceanic
09:48PM 25.5500 -41.2500 68° East 530 610 35,000  Level New York Oceanic (ODAPS)
09:49PM 25.5666 -41.2023 68° East 523 602 35,000  Level FlightAware Transoceanic
09:50PM 25.6213 -41.0525 68° East 523 602 35,000  Level FlightAware Transoceanic
09:51PM 25.6759 -40.9025 68° East 523 602 35,000  Level FlightAware Transoceanic
09:52PM 25.7303 -40.7524 68° East 523 602 35,000  Level FlightAware Transoceanic
09:53PM 25.7845 -40.6022 68° East 523 602 35,000  Level FlightAware Transoceanic
09:54PM 25.8885 -40.3134 68° East 530 610 35,000  Level FlightAware Transoceanic
09:55PM 25.9443 -40.1568 68° East 530 610 35,000  Level FlightAware Transoceanic
09:56PM 26.0000 -40.0000 58° Northeast 530 610 35,000  Level FlightAware Transoceanic
09:57PM 26.0774 -39.8617 58° Northeast 530 610 35,000  Level FlightAware Transoceanic
09:58PM 26.1548 -39.7232 58° Northeast 530 610 35,000  Level FlightAware Transoceanic
09:59PM 26.2320 -39.5845 58° Northeast 530 610 35,000  Level FlightAware Transoceanic
10:00PM 26.3090 -39.4456 58° Northeast 530 610 35,000  Level FlightAware Transoceanic
10:01PM 26.3859 -39.3066 58° Northeast 530 610 35,000  Level FlightAware Transoceanic
10:02PM 26.4627 -39.1673 58° Northeast 530 610 35,000  Level FlightAware Transoceanic
10:03PM 26.5393 -39.0279 58° Northeast 530 610 35,000  Level FlightAware Transoceanic
10:04PM 26.6159 -38.8883 59° Northeast 530 610 35,000  Level FlightAware Transoceanic
10:05PM 26.6922 -38.7485 59° Northeast 530 610 35,000  Level FlightAware Transoceanic
10:06PM 26.7685 -38.6085 59° Northeast 530 610 35,000  Level FlightAware Transoceanic
10:07PM 26.8446 -38.4683 59° Northeast 530 610 35,000  Level FlightAware Transoceanic
10:08PM 26.9205 -38.3279 59° Northeast 530 610 35,000  Level FlightAware Transoceanic
10:09PM 26.9963 -38.1874 59° Northeast 530 610 35,000  Level FlightAware Transoceanic
10:10PM 27.0720 -38.0466 59° Northeast 530 610 35,000  Level FlightAware Transoceanic
10:11PM 27.1476 -37.9057 59° Northeast 530 610 35,000  Level FlightAware Transoceanic
10:12PM 27.2230 -37.7646 59° Northeast 530 610 35,000  Level FlightAware Transoceanic
10:13PM 27.2982 -37.6233 59° Northeast 530 610 35,000  Level FlightAware Transoceanic
10:14PM 27.3733 -37.4818 59° Northeast 530 610 35,000  Level FlightAware Transoceanic
10:15PM 27.4483 -37.3401 59° Northeast 530 610 35,000  Level FlightAware Transoceanic
10:16PM 27.5231 -37.1982 59° Northeast 530 610 35,000  Level FlightAware Transoceanic
10:17PM 27.5978 -37.0561 59° Northeast 530 610 35,000  Level FlightAware Transoceanic
10:18PM 27.6724 -36.9138 59° Northeast 530 610 35,000  Level FlightAware Transoceanic
10:19PM 27.7468 -36.7714 59° Northeast 530 610 35,000  Level FlightAware Transoceanic
10:20PM 27.8210 -36.6287 60° Northeast 530 610 35,000  Level FlightAware Transoceanic
10:21PM 27.8951 -36.4858 60° Northeast 530 610 35,000  Level FlightAware Transoceanic
10:22PM 27.9691 -36.3428 60° Northeast 530 610 35,000  Level FlightAware Transoceanic
10:23PM 28.0429 -36.1995 60° Northeast 530 610 35,000  Level FlightAware Transoceanic
10:24PM 28.1165 -36.0561 60° Northeast 530 610 35,000  Level FlightAware Transoceanic
10:25PM 28.1901 -35.9124 60° Northeast 530 610 35,000  Level FlightAware Transoceanic
10:26PM 28.2634 -35.7686 60° Northeast 530 610 35,000  Level FlightAware Transoceanic
10:27PM 28.3366 -35.6245 60° Northeast 530 610 35,000  Level FlightAware Transoceanic
10:28PM 28.4097 -35.4803 60° Northeast 530 610 35,000  Level FlightAware Transoceanic
10:29PM 28.4826 -35.3359 60° Northeast 530 610 35,000  Level FlightAware Transoceanic
10:30PM 28.5553 -35.1912 60° Northeast 530 610 35,000  Level FlightAware Transoceanic
10:31PM 28.6279 -35.0464 60° Northeast 530 610 35,000  Level FlightAware Transoceanic
10:32PM 28.7004 -34.9013 60° Northeast 530 610 35,000  Level FlightAware Transoceanic
10:33PM 28.7727 -34.7561 60° Northeast 530 610 35,000  Level FlightAware Transoceanic
10:34PM 28.8448 -34.6107 61° Northeast 530 610 35,000  Level FlightAware Transoceanic
10:35PM 28.9168 -34.4650 61° Northeast 530 610 35,000  Level FlightAware Transoceanic
10:36PM 28.9886 -34.3192 61° Northeast 530 610 35,000  Level FlightAware Transoceanic
10:37PM 29.0602 -34.1731 61° Northeast 530 610 35,000  Level FlightAware Transoceanic
10:38PM 29.1318 -34.0269 61° Northeast 530 610 35,000  Level FlightAware Transoceanic
10:39PM 29.2031 -33.8804 61° Northeast 530 610 35,000  Level FlightAware Transoceanic
10:40PM 29.2743 -33.7338 61° Northeast 530 610 35,000  Level FlightAware Transoceanic
10:41PM 29.3453 -33.5869 61° Northeast 530 610 35,000  Level FlightAware Transoceanic
10:42PM 29.4162 -33.4399 61° Northeast 530 610 35,000  Level FlightAware Transoceanic
10:43PM 29.4869 -33.2926 61° Northeast 530 610 35,000  Level FlightAware Transoceanic
10:44PM 29.5574 -33.1451 61° Northeast 530 610 35,000  Level FlightAware Transoceanic
10:45PM 29.6278 -32.9974 61° Northeast 530 610 35,000  Level FlightAware Transoceanic
10:46PM 29.6980 -32.8495 61° Northeast 530 610 35,000  Level FlightAware Transoceanic
10:47PM 29.7681 -32.7015 61° Northeast 530 610 35,000  Level FlightAware Transoceanic
10:48PM 29.8379 -32.5532 62° Northeast 530 610 35,000  Level FlightAware Transoceanic
10:49PM 29.9077 -32.4046 62° Northeast 530 610 35,000  Level FlightAware Transoceanic
10:50PM 29.9772 -32.2559 62° Northeast 530 610 35,000  Level FlightAware Transoceanic
10:51PM 30.0466 -32.1070 62° Northeast 530 610 35,000  Level FlightAware Transoceanic
10:52PM 30.1158 -31.9579 62° Northeast 530 610 35,000  Level FlightAware Transoceanic
10:53PM 30.1849 -31.8085 62° Northeast 530 610 35,000  Level FlightAware Transoceanic
10:54PM 30.2537 -31.6590 62° Northeast 530 610 35,000  Level FlightAware Transoceanic
10:55PM 30.3224 -31.5092 62° Northeast 530 610 35,000  Level FlightAware Transoceanic
10:56PM 30.3910 -31.3592 62° Northeast 530 610 35,000  Level FlightAware Transoceanic
10:57PM 30.4593 -31.2091 62° Northeast 530 610 35,000  Level FlightAware Transoceanic
10:58PM 30.5275 -31.0587 62° Northeast 530 610 35,000  Level FlightAware Transoceanic
10:59PM 30.5956 -30.9081 62° Northeast 530 610 35,000  Level FlightAware Transoceanic
11:00PM 30.6634 -30.7572 62° Northeast 530 610 35,000  Level FlightAware Transoceanic
11:01PM 30.7311 -30.6062 63° Northeast 530 610 35,000  Level FlightAware Transoceanic
11:02PM 30.7986 -30.4550 63° Northeast 530 610 35,000  Level FlightAware Transoceanic
11:03PM 30.8659 -30.3035 63° Northeast 530 610 35,000  Level FlightAware Transoceanic
11:04PM 30.9330 -30.1519 63° Northeast 530 610 35,000  Level FlightAware Transoceanic
11:05PM 30.9994 -30.0014 63° Northeast  Level FlightAware Approximate
11:06PM 31.0654 -29.8506 63° Northeast  Level FlightAware Approximate
11:07PM 31.0538 -29.8461 68° East  Level FlightAware Approximate
11:08PM 31.1084 -29.6891 68° East  Level FlightAware Approximate
11:09PM 31.1628 -29.5320 68° East  Level FlightAware Approximate
11:10PM 31.2170 -29.3746 68° East  Level FlightAware Approximate
11:11PM 31.2710 -29.2171 68° East  Level FlightAware Approximate
11:12PM 31.3249 -29.0595 68° East  Level FlightAware Approximate
11:13PM 31.3785 -28.9016 68° East  Level FlightAware Approximate
11:14PM 31.4320 -28.7435 68° East  Level FlightAware Approximate
11:15PM 31.4852 -28.5853 68° East  Level FlightAware Approximate
11:16PM 31.5383 -28.4269 69° East  Level FlightAware Approximate
11:17PM 31.5912 -28.2683 69° East  Level FlightAware Approximate
11:18PM 31.6438 -28.1095 69° East  Level FlightAware Approximate
11:19PM 31.6963 -27.9506 69° East  Level FlightAware Approximate
11:20PM 31.7486 -27.7915 69° East  Level FlightAware Approximate
11:21PM 31.8007 -27.6321 69° East  Level FlightAware Approximate
11:22PM 31.8525 -27.4727 69° East  Level FlightAware Approximate
11:23PM 31.9042 -27.3130 69° East  Level FlightAware Approximate
11:24PM 31.9557 -27.1531 69° East  Level FlightAware Approximate
11:25PM 32.0070 -26.9931 69° East  Level FlightAware Approximate
11:26PM 32.0581 -26.8329 69° East  Level FlightAware Approximate
11:27PM 32.1089 -26.6725 69° East  Level FlightAware Approximate
11:28PM 32.1596 -26.5120 70° East  Level FlightAware Approximate
11:29PM 32.2101 -26.3512 70° East  Level FlightAware Approximate
11:30PM 32.2603 -26.1903 70° East  Level FlightAware Approximate
11:31PM 32.3104 -26.0292 70° East  Level FlightAware Approximate
11:32PM 32.3603 -25.8680 70° East  Level FlightAware Approximate
11:33PM 32.4099 -25.7065 70° East  Level FlightAware Approximate
11:34PM 32.4594 -25.5449 70° East  Level FlightAware Approximate
11:35PM 32.5086 -25.3831 70° East  Level FlightAware Approximate
11:36PM 32.5576 -25.2211 70° East  Level FlightAware Approximate
11:37PM 32.6065 -25.0589 70° East  Level FlightAware Approximate
11:38PM 32.6551 -24.8966 70° East  Level FlightAware Approximate
11:39PM 32.7035 -24.7341 70° East  Level FlightAware Approximate
11:40PM 32.7517 -24.5714 71° East  Level FlightAware Approximate
11:41PM 32.7997 -24.4085 71° East  Level FlightAware Approximate
11:42PM 32.8475 -24.2455 71° East  Level FlightAware Approximate
11:43PM 32.8950 -24.0823 71° East  Level FlightAware Approximate
11:44PM 32.9424 -23.9189 71° East  Level FlightAware Approximate
11:45PM 32.9895 -23.7553 71° East  Level FlightAware Approximate
11:46PM 33.0364 -23.5916 71° East  Level FlightAware Approximate
11:47PM 33.0831 -23.4277 71° East  Level FlightAware Approximate
11:48PM 33.1297 -23.2636 71° East  Level FlightAware Approximate
11:49PM 33.1759 -23.0993 71° East  Level FlightAware Approximate
11:50PM 33.2220 -22.9349 71° East  Level FlightAware Approximate
11:51PM 33.2678 -22.7703 72° East  Level FlightAware Approximate
11:52PM 33.3135 -22.6055 72° East  Level FlightAware Approximate
11:53PM 33.3589 -22.4406 72° East  Level FlightAware Approximate
11:54PM 33.4041 -22.2755 72° East  Level FlightAware Approximate
11:55PM 33.4491 -22.1102 72° East  Level FlightAware Approximate
11:56PM 33.4938 -21.9447 72° East  Level FlightAware Approximate
11:57PM 33.5384 -21.7791 72° East  Level FlightAware Approximate
11:58PM 33.5827 -21.6133 72° East  Level FlightAware Approximate
11:59PM 33.6268 -21.4473 72° East  Level FlightAware Approximate
12:00AM 33.6706 -21.2811 72° East  Level FlightAware Approximate
12:01AM 33.7143 -21.1148 72° East  Level FlightAware Approximate
12:02AM 33.7577 -20.9483 73° East  Level FlightAware Approximate
12:03AM 33.8009 -20.7817 73° East  Level FlightAware Approximate
12:04AM 33.8439 -20.6149 73° East  Level FlightAware Approximate
12:05AM 33.8867 -20.4479 73° East  Level FlightAware Approximate
12:06AM 33.9292 -20.2807 73° East  Level FlightAware Approximate
12:07AM 33.9715 -20.1134 73° East  Level FlightAware Approximate
12:08AM 34.0210 -19.9495 63° Northeast  Level FlightAware Approximate
12:09AM 34.0860 -19.7929 63° Northeast  Level FlightAware Approximate
12:10AM 34.1507 -19.6361 63° Northeast  Level FlightAware Approximate
12:11AM 34.2153 -19.4790 64° Northeast  Level FlightAware Approximate
12:12AM 34.2796 -19.3217 64° Northeast  Level FlightAware Approximate
12:13AM 34.3438 -19.1641 64° Northeast  Level FlightAware Approximate
12:14AM 34.4083 -19.0067 63° Northeast  Level FlightAware Approximate
12:15AM 34.4736 -18.8496 63° Northeast  Level FlightAware Approximate
12:16AM 34.5387 -18.6922 63° Northeast  Level FlightAware Approximate
12:17AM 34.6036 -18.5346 63° Northeast  Level FlightAware Approximate
12:18AM 34.6683 -18.3767 63° Northeast  Level FlightAware Approximate
12:19AM 34.7328 -18.2186 64° Northeast  Level FlightAware Approximate
12:20AM 34.7970 -18.0603 64° Northeast  Level FlightAware Approximate
12:21AM 34.8611 -17.9017 64° Northeast  Level FlightAware Approximate
12:22AM 34.9250 -17.7428 64° Northeast  Level FlightAware Approximate
12:23AM 34.9886 -17.5837 64° Northeast  Level FlightAware Approximate
12:24AM 35.0521 -17.4244 64° Northeast  Level FlightAware Approximate
12:25AM 35.1153 -17.2648 64° Northeast  Level FlightAware Approximate
12:26AM 35.1783 -17.1049 64° Northeast  Level FlightAware Approximate
12:27AM 35.2412 -16.9449 64° Northeast  Level FlightAware Approximate
12:28AM 35.3038 -16.7845 64° Northeast  Level FlightAware Approximate
12:29AM 35.3662 -16.6240 64° Northeast  Level FlightAware Approximate
12:30AM 35.4283 -16.4631 65° Northeast  Level FlightAware Approximate
12:31AM 35.4903 -16.3021 65° Northeast  Level FlightAware Approximate
12:32AM 35.5668 -16.1516 53° Northeast  Level FlightAware Approximate
12:33AM 35.6540 -16.0090 53° Northeast  Level FlightAware Approximate
12:34AM 35.7410 -15.8660 53° Northeast  Level FlightAware Approximate
12:35AM 35.8279 -15.7228 53° Northeast  Level FlightAware Approximate
12:36AM 35.9146 -15.5792 53° Northeast  Level FlightAware Approximate
12:37AM 36.0011 -15.4353 53° Northeast  Level FlightAware Approximate
12:38AM 36.0875 -15.2911 53° Northeast  Level FlightAware Approximate
12:39AM 36.1737 -15.1465 54° Northeast  Level FlightAware Approximate
12:40AM 36.2597 -15.0017 54° Northeast  Level FlightAware Approximate
12:41AM 36.3455 -14.8565 54° Northeast  Level FlightAware Approximate
12:42AM 36.4312 -14.7111 54° Northeast  Level FlightAware Approximate
12:43AM 36.5167 -14.5652 54° Northeast  Level FlightAware Approximate
12:44AM 36.6020 -14.4191 54° Northeast  Level FlightAware Approximate
12:45AM 36.6871 -14.2727 54° Northeast  Level FlightAware Approximate
12:46AM 36.7720 -14.1259 54° Northeast  Level FlightAware Approximate
12:47AM 36.8568 -13.9788 54° Northeast  Level FlightAware Approximate
12:48AM 36.9413 -13.8314 54° Northeast  Level FlightAware Approximate
12:49AM 37.0257 -13.6836 54° Northeast  Level FlightAware Approximate
12:50AM 37.1100 -13.5355 54° Northeast  Level FlightAware Approximate
12:51AM 37.1940 -13.3871 55° Northeast  Level FlightAware Approximate
12:52AM 37.2779 -13.2384 55° Northeast  Level FlightAware Approximate
12:53AM 37.3615 -13.0893 55° Northeast  Level FlightAware Approximate
12:54AM 37.4450 -12.9399 55° Northeast  Level FlightAware Approximate
12:55AM 37.5283 -12.7901 55° Northeast  Level FlightAware Approximate
12:56AM 37.6114 -12.6401 55° Northeast  Level FlightAware Approximate
12:57AM 37.6942 -12.4897 55° Northeast  Level FlightAware Approximate
12:58AM 37.7770 -12.3389 55° Northeast  Level FlightAware Approximate
12:59AM 37.8595 -12.1878 55° Northeast  Level FlightAware Approximate
01:00AM 37.9418 -12.0364 55° Northeast  Level FlightAware Approximate
01:01AM 38.0239 -11.8847 55° Northeast  Level FlightAware Approximate
01:02AM 38.1059 -11.7326 56° Northeast  Level FlightAware Approximate
01:02AM 38.6090 -10.5360 56° Northeast 573 659 35,400  Level FlightAware
01:03AM 38.1876 -11.5801 56° Northeast  Level FlightAware Approximate
01:03AM 38.6900 -10.3740 57° Northeast 574 661 35,400  Level FlightAware
01:03AM 38.7270 -10.2990 58° Northeast 574 661 35,400  Level FlightAware
01:04AM 38.8140 -10.1230 58° Northeast 574 661 35,400 -300 Level FlightAware
01:05AM 38.8500 -10.0490 58° Northeast 573 659 35,000  Descending FlightAware
01:05AM 38.9290 -9.8880 58° Northeast 574 661 35,400 240 Climbing FlightAware
01:06AM 38.9870 -9.7680 58° Northeast 572 658 35,400  Level FlightAware
01:07AM 39.0360 -9.6680 58° Northeast 573 659 35,400 -300 Level FlightAware
01:08AM 39.1120 -9.5100 58° Northeast 568 654 35,000 -300 Descending FlightAware
01:08AM 39.1670 -9.3960 58° Northeast 569 655 35,000  Level FlightAware
01:09AM 39.2300 -9.2640 58° Northeast 570 656 35,000  Level FlightAware
01:10AM 39.2860 -9.1470 58° Northeast 570 656 35,000  Level FlightAware
01:10AM 39.3410 -9.0320 58° Northeast 570 656 35,000  Level FlightAware
01:11AM 39.4030 -8.9020 58° Northeast 569 655 35,000  Level FlightAware
01:12AM 39.4610 -8.7780 59° Northeast 571 657 35,000  Level FlightAware
01:13AM 39.5360 -8.6200 58° Northeast 572 658 35,000  Level FlightAware
01:15AM 39.6073 -8.2843 74° East  Level Estimated
01:15AM 39.6900 -8.2900 74° East 571 657 35,000  Level FlightAware
01:15AM 39.7510 -8.1580 59° Northeast 569 655 35,000  Level FlightAware
01:16AM 39.8120 -8.0250 59° Northeast 574 661 35,000  Level FlightAware
01:17AM 39.8800 -7.8760 59° Northeast 574 661 35,000  Level FlightAware
01:18AM 39.9940 -7.6260 59° Northeast 573 659 35,000  Level FlightAware
01:19AM 40.0700 -7.4600 59° Northeast 575 662 35,000  Level FlightAware
01:20AM 40.1090 -7.3720 60° Northeast 575 662 35,000  Level FlightAware
01:21AM 40.1830 -7.2080 59° Northeast 574 661 35,000  Level FlightAware
01:22AM 40.2920 -6.9640 60° Northeast 574 661 35,000 -420 Level FlightAware
01:23AM 40.3730 -6.7860 59° Northeast 573 659 34,100 -480 Descending FlightAware
01:24AM 40.4820 -6.5680 57° Northeast 571 657 34,000 -60 Descending FlightAware
01:25AM 40.5770 -6.3740 57° Northeast 576 663 34,000  Level FlightAware
01:26AM 40.6340 -6.2560 57° Northeast 576 663 34,000  Level FlightAware
01:27AM 40.6910 -6.1380 57° Northeast 575 662 34,000 -720 Level FlightAware
01:27AM 40.7550 -6.0050 58° Northeast 576 663 33,000 -1,860 Descending FlightAware
01:28AM 40.8110 -5.8880 58° Northeast 570 656 31,400 -2,340 Descending FlightAware
01:29AM 40.8670 -5.7710 58° Northeast 568 654 29,900 -1,860 Descending FlightAware
01:29AM 40.9280 -5.6420 58° Northeast 544 626 28,800 -1,500 Descending FlightAware
01:30AM 40.9690 -5.5300 64° Northeast 528 608 27,800 -1,740 Descending FlightAware
01:31AM 41.0050 -5.3910 71° East 511 588 26,400 -1,680 Descending FlightAware
01:32AM 41.0240 -5.2690 78° East 499 574 25,500 -1,020 Descending FlightAware
01:32AM 41.0330 -5.1510 84° East 471 542 25,100 -660 Descending FlightAware
01:33AM 41.0390 -5.0270 86° East 437 503 24,600 -960 Descending FlightAware
01:34AM 41.0440 -4.9250 86° East 409 471 23,800 -1,680 Descending FlightAware
01:34AM 41.0490 -4.8280 86° East 400 460 22,400 -2,580 Descending FlightAware
01:35AM 41.0540 -4.7180 87° East 389 448 20,200 -2,700 Descending FlightAware
01:36AM 41.0580 -4.6250 87° East 380 437 18,600 -2,340 Descending FlightAware
01:36AM 41.0560 -4.5250 91° East 368 423 16,900 -1,860 Descending FlightAware
01:37AM 41.0460 -4.4340 98° East 365 420 16,000 -1,380 Descending FlightAware
01:38AM 41.0320 -4.3150 99° East 360 414 14,800 -1,200 Descending FlightAware
01:39AM 41.0220 -4.2280 99° East 354 407 14,100 -1,080 Descending FlightAware
01:39AM 41.0120 -4.1440 99° East 350 403 13,400 -1,020 Descending FlightAware
01:40AM 41.0000 -4.0480 99° East 352 405 12,700 -900 Descending FlightAware
01:41AM 40.9890 -3.9540 99° East 341 392 12,100 -900 Descending FlightAware
01:42AM 40.9800 -3.8740 98° East 333 383 11,500 -780 Descending FlightAware
01:42AM 40.9700 -3.7910 99° East 318 366 11,000 -360 Descending FlightAware
01:43AM 40.9590 -3.7120 100° East 289 333 11,000 -360 Level FlightAware
01:43AM 40.9490 -3.6870 118° Southeast 273 314 10,700 -1,320 Descending FlightAware
01:44AM 40.9200 -3.6350 126° Southeast 268 308 9,800 -1,380 Descending FlightAware
01:44AM 40.8970 -3.5960 128° Southeast 268 308 9,100 -1,380 Descending FlightAware
01:45AM 40.8810 -3.5810 145° Southeast 247 284 8,800 -900 Descending FlightAware
01:45AM 40.8570 -3.5770 173° South 234 269 8,500 -960 Descending FlightAware
01:45AM 40.8290 -3.5770 180° South 227 261 8,000 -1,200 Descending FlightAware
01:46AM 40.7960 -3.5760 179° South 226 260 7,400 -1,200 Descending FlightAware
01:46AM 40.7660 -3.5760 180° South 221 254 6,800 -1,200 Descending FlightAware
01:47AM 40.7360 -3.5760 180° South 212 244 6,200 -1,200 Descending FlightAware
01:47AM 40.7190 -3.5760 180° South 211 243 5,800 -1,200 Descending FlightAware
01:48AM 40.6850 -3.5760 180° South 202 232 5,100 -1,200 Descending FlightAware
01:48AM 40.6600 -3.5760 180° South 199 229 4,600 -1,140 Descending FlightAware
01:49AM 40.6330 -3.5750 178° South 190 219 4,100 -1,020 Descending FlightAware
01:49AM 40.6080 -3.5750 180° South 168 193 3,600 -960 Descending FlightAware
01:50AM 40.5970 -3.5750 180° South 157 181 3,400 -900 Descending FlightAware
01:50AM 40.5700 -3.5750 180° South 141 162 2,800 -840 Descending FlightAware
01:51AM 40.5580 -3.5750 180° South 142 163 2,600 -720 Descending FlightAware
01:52AM 40.5190 -3.5750 180° South 150 173 1,900 -720 Descending FlightAware